Time;durP1;ratioP1;P1;durP2;ratioP2;P2;SDS_P1;SDS_P2;PMS_P1;PMS_P2;Temp;Humidity;BMP_temperature;BMP_pressure;BME280_temperature;BME280_humidity;BME280_pressure;Samples;Min_cycle;Max_cycle;Signal;HPM_P1;HPM_P2
2022/08/11 00:00:09;;;;;;;2.25;2.03;;;22.30;99.90;;;;;;5114094;28;20561;-52
2022/08/11 00:02:38;;;;;;;2.22;2.03;;;22.30;99.90;;;;;;5113777;28;20173;-45
2022/08/11 00:05:08;;;;;;;3.47;2.42;;;22.30;99.90;;;;;;5113705;28;20168;-48
2022/08/11 00:07:44;;;;;;;9.45;2.42;;;22.20;99.90;;;;;;5113702;28;20176;-45
2022/08/11 00:10:12;;;;;;;2.67;2.28;;;22.20;99.90;;;;;;5113996;28;20196;-48
2022/08/11 00:12:38;;;;;;;3.92;2.60;;;22.20;99.90;;;;;;5113451;28;20292;-45
2022/08/11 00:15:04;;;;;;;4.45;2.65;;;22.10;99.90;;;;;;5095374;28;20168;-46
2022/08/11 00:17:32;;;;;;;3.47;2.30;;;22.10;99.90;;;;;;5113465;28;20686;-45
2022/08/11 00:20:08;;;;;;;2.75;1.95;;;22.10;99.90;;;;;;5113708;28;20173;-46
2022/08/11 00:22:40;;;;;;;3.55;2.30;;;22.00;99.90;;;;;;5113442;28;20190;-49
2022/08/11 00:25:20;;;;;;;2.88;2.20;;;22.00;99.90;;;;;;5113647;28;20169;-47
2022/08/11 00:27:47;;;;;;;2.42;2.22;;;21.90;99.90;;;;;;5113319;28;20209;-45
2022/08/11 00:30:13;;;;;;;3.13;2.50;;;21.90;99.90;;;;;;5113437;28;20210;-44
2022/08/11 00:32:53;;;;;;;4.68;2.17;;;21.90;99.90;;;;;;5113606;28;20161;-46
2022/08/11 00:35:25;;;;;;;2.78;2.55;;;21.80;99.90;;;;;;5113259;28;20658;-45
2022/08/11 00:37:54;;;;;;;4.85;2.60;;;21.70;99.90;;;;;;5113410;28;20523;-45
2022/08/11 00:40:33;;;;;;;2.90;2.20;;;21.60;99.90;;;;;;5112948;28;20662;-45
2022/08/11 00:43:15;;;;;;;2.70;2.15;;;21.60;99.90;;;;;;5113050;28;20172;-44
2022/08/11 00:46:16;;;;;;;3.13;2.83;;;21.40;99.90;;;;;;5113331;28;20169;-45
2022/08/11 00:48:59;;;;;;;2.47;2.28;;;21.30;99.90;;;;;;5099252;28;20211;-47
2022/08/11 00:51:36;;;;;;;2.88;2.30;;;21.30;99.90;;;;;;5113156;28;20165;-45
2022/08/11 00:54:26;;;;;;;3.47;2.45;;;21.20;99.90;;;;;;5112840;28;20164;-46
2022/08/11 00:57:49;;;;;;;3.88;2.80;;;21.20;99.90;;;;;;5112740;28;20628;-49
2022/08/11 01:00:22;;;;;;;5.63;2.55;;;21.20;99.90;;;;;;5030214;28;20178;-46
2022/08/11 01:03:12;;;;;;;3.33;2.65;;;21.30;99.90;;;;;;5100077;28;20229;-50
2022/08/11 01:05:56;;;;;;;4.38;2.33;;;21.20;99.90;;;;;;5113064;28;20628;-44
2022/08/11 01:08:57;;;;;;;6.60;2.80;;;21.10;99.90;;;;;;5112807;28;20258;-45
2022/08/11 01:12:01;;;;;;;2.90;2.60;;;21.20;99.90;;;;;;5112656;28;20172;-46
2022/08/11 01:14:42;;;;;;;4.60;2.50;;;21.10;99.90;;;;;;5112015;28;20218;-48
2022/08/11 01:17:25;;;;;;;3.45;2.60;;;21.10;99.90;;;;;;5112761;28;20588;-45
2022/08/11 01:20:18;;;;;;;3.58;2.50;;;21.10;99.90;;;;;;5112462;28;20157;-45
2022/08/11 01:23:30;;;;;;;4.90;2.40;;;21.00;99.90;;;;;;5112309;28;20648;-47
2022/08/11 01:26:33;;;;;;;3.22;2.40;;;20.90;99.90;;;;;;5112295;28;20168;-47
2022/08/11 01:29:20;;;;;;;3.13;2.80;;;20.90;99.90;;;;;;5112546;28;20215;-51
2022/08/11 01:32:28;;;;;;;3.90;2.67;;;20.80;99.90;;;;;;5112359;28;20186;-51
2022/08/11 01:35:18;;;;;;;2.67;2.35;;;20.80;99.90;;;;;;5112532;28;20172;-48
2022/08/11 01:38:20;;;;;;;4.63;2.60;;;20.80;99.90;;;;;;5110822;28;20519;-50
2022/08/11 01:41:09;;;;;;;3.08;2.72;;;20.70;99.90;;;;;;5112328;28;20175;-49
2022/08/11 01:47:08;;;;;;;5.70;2.90;;;20.60;99.90;;;;;;5112181;28;20663;-52
2022/08/11 01:49:45;;;;;;;3.17;2.60;;;20.50;99.90;;;;;;5112106;28;20205;-50
2022/08/11 01:52:19;;;;;;;4.95;2.60;;;20.60;99.90;;;;;;5115185;28;20156;-49
2022/08/11 01:55:22;;;;;;;3.38;2.67;;;20.60;99.90;;;;;;5116499;28;20627;-54
2022/08/11 01:58:29;;;;;;;5.13;2.50;;;20.50;99.90;;;;;;5116419;28;20304;-51
2022/08/11 02:01:27;;;;;;;4.45;2.70;;;20.40;99.90;;;;;;5033289;28;20167;-51
2022/08/11 02:04:17;;;;;;;3.03;2.28;;;20.40;99.90;;;;;;5110573;28;20177;-53
2022/08/11 02:07:03;;;;;;;5.20;2.53;;;20.20;99.90;;;;;;5116091;28;20161;-45
2022/08/11 02:09:41;;;;;;;5.90;2.90;;;20.00;99.90;;;;;;5115925;28;20196;-50
2022/08/11 02:12:22;;;;;;;3.42;2.35;;;20.00;99.90;;;;;;5115922;28;20672;-50
2022/08/11 02:15:02;;;;;;;5.20;3.08;;;20.00;99.90;;;;;;5116122;28;20173;-47
2022/08/11 02:18:04;;;;;;;2.72;2.50;;;19.90;99.90;;;;;;5116128;28;20165;-45
2022/08/11 02:26:08;;;;;;;4.38;2.35;;;19.70;99.90;;;;;;5115989;28;20209;-42
2022/08/11 02:28:44;;;;;;;4.90;2.85;;;19.70;99.90;;;;;;5115585;28;20200;-42
2022/08/11 02:34:29;;;;;;;2.50;2.30;;;19.60;99.90;;;;;;5116110;28;20182;-48
2022/08/11 02:37:15;;;;;;;4.65;2.63;;;19.70;99.90;;;;;;5115465;28;20164;-43
2022/08/11 02:39:58;;;;;;;3.42;2.90;;;19.80;99.90;;;;;;5115989;28;20301;-44
2022/08/11 02:42:45;;;;;;;4.18;2.63;;;19.70;99.90;;;;;;5115354;28;20172;-49
2022/08/11 02:45:35;;;;;;;2.70;2.50;;;19.80;99.90;;;;;;5115708;28;20164;-47
2022/08/11 02:51:25;;;;;;;4.25;2.65;;;19.70;99.90;;;;;;5115178;28;20199;-45
2022/08/11 02:54:06;;;;;;;3.55;2.67;;;19.80;99.90;;;;;;5115369;28;20225;-45
2022/08/11 02:57:03;;;;;;;3.53;2.70;;;19.80;99.90;;;;;;5115085;28;20161;-44
2022/08/11 02:59:51;;;;;;;2.53;2.30;;;19.70;99.90;;;;;;5114976;28;20188;-42
2022/08/11 03:02:31;;;;;;;3.75;2.63;;;19.70;99.90;;;;;;5113804;28;20165;-43
2022/08/11 03:05:19;;;;;;;2.90;2.60;;;19.70;99.90;;;;;;5114713;28;20164;-46
2022/08/11 03:07:57;;;;;;;3.08;2.63;;;19.70;99.90;;;;;;5115152;28;20175;-45
2022/08/11 03:10:33;;;;;;;3.33;2.85;;;19.60;99.90;;;;;;5115050;28;20598;-46
2022/08/11 03:19:27;;;;;;;5.30;3.00;;;19.40;99.90;;;;;;5114832;28;20218;-49
2022/08/11 03:22:06;;;;;;;3.25;2.65;;;19.40;99.90;;;;;;5114444;28;20165;-44
2022/08/11 03:24:53;;;;;;;3.72;2.45;;;19.40;99.90;;;;;;5114684;28;20161;-44
2022/08/11 03:27:29;;;;;;;3.85;3.10;;;19.40;99.90;;;;;;5114485;28;20167;-44
2022/08/11 03:30:11;;;;;;;5.55;3.03;;;19.40;99.90;;;;;;5114506;28;20242;-45
2022/08/11 03:36:24;;;;;;;4.13;2.70;;;19.30;99.90;;;;;;5086430;28;20654;-44
2022/08/11 03:39:02;;;;;;;4.25;2.85;;;19.40;99.90;;;;;;5114323;28;20172;-44
2022/08/11 03:42:09;;;;;;;2.78;2.53;;;19.40;99.90;;;;;;5114186;28;20578;-46
2022/08/11 03:44:49;;;;;;;6.70;2.40;;;19.40;99.90;;;;;;5069085;28;20180;-45
2022/08/11 03:47:40;;;;;;;4.00;3.10;;;19.50;99.90;;;;;;5114235;28;20727;-45
2022/08/11 03:50:34;;;;;;;4.03;2.70;;;19.40;99.90;;;;;;5114330;28;20204;-44
2022/08/11 03:53:10;;;;;;;2.97;2.67;;;19.50;99.90;;;;;;5113955;28;20161;-44
2022/08/11 03:56:23;;;;;;;4.85;2.95;;;19.40;99.90;;;;;;5113977;28;20713;-44
2022/08/11 03:59:13;;;;;;;4.45;2.85;;;19.40;99.90;;;;;;5041233;28;20206;-46
2022/08/11 04:02:14;;;;;;;3.17;2.80;;;19.40;99.90;;;;;;5114441;28;20176;-44
2022/08/11 04:05:15;;;;;;;2.60;2.38;;;19.40;99.90;;;;;;5031594;28;20643;-44
2022/08/11 04:07:59;;;;;;;4.72;2.83;;;19.40;99.90;;;;;;5114064;28;20256;-45
2022/08/11 04:10:58;;;;;;;3.60;2.58;;;19.30;99.90;;;;;;5113556;28;20197;-46
2022/08/11 04:13:54;;;;;;;2.78;2.58;;;19.40;99.90;;;;;;5113306;28;20223;-45
2022/08/11 04:16:43;;;;;;;4.55;3.00;;;19.30;99.90;;;;;;5113820;28;20168;-44
2022/08/11 04:19:21;;;;;;;7.60;3.03;;;19.20;99.90;;;;;;5113861;28;20165;-44
2022/08/11 04:22:24;;;;;;;4.90;3.00;;;19.20;99.90;;;;;;5113580;28;20167;-45
2022/08/11 04:25:48;;;;;;;3.75;2.90;;;19.20;99.90;;;;;;5113339;28;20168;-45
2022/08/11 04:28:48;;;;;;;4.15;2.72;;;19.30;99.90;;;;;;5014148;28;20237;-50
2022/08/11 04:31:23;;;;;;;4.55;3.13;;;19.20;99.90;;;;;;5030732;28;20178;-46
2022/08/11 04:34:09;;;;;;;3.05;2.40;;;19.10;99.90;;;;;;5104791;28;20267;-48
2022/08/11 04:37:35;;;;;;;4.00;3.00;;;19.10;99.90;;;;;;5113257;28;20226;-45
2022/08/11 04:40:11;;;;;;;4.18;2.50;;;19.10;99.90;;;;;;5113110;28;20504;-47
2022/08/11 04:43:20;;;;;;;3.33;2.58;;;19.20;99.90;;;;;;5095355;28;20558;-48
2022/08/11 04:45:48;;;;;;;5.22;3.03;;;19.10;99.90;;;;;;5112991;28;20165;-45
2022/08/11 05:07:37;;;;;;;7.35;3.50;;;19.40;99.90;;;;;;5112591;28;20176;-45
2022/08/11 05:10:16;;;;;;;5.05;2.92;;;19.40;99.90;;;;;;5111311;28;20227;-44
2022/08/11 05:12:55;;;;;;;5.03;2.85;;;19.30;99.90;;;;;;5112583;28;20208;-43
2022/08/11 05:36:06;;;;;;;8.05;3.78;;;19.90;99.90;;;;;;5112549;28;20252;-43
2022/08/11 05:58:03;;;;;;;8.27;2.80;;;20.90;99.90;;;;;;5112182;28;20233;-45
2022/08/11 06:00:30;;;;;;;5.20;2.70;;;21.00;99.90;;;;;;5112083;28;20244;-43
2022/08/11 06:02:59;;;;;;;4.82;3.08;;;21.10;99.90;;;;;;5111900;28;20169;-45
2022/08/11 06:05:31;;;;;;;7.90;3.05;;;21.30;99.90;;;;;;5112229;28;20164;-44
2022/08/11 06:07:58;;;;;;;3.17;2.70;;;21.30;99.90;;;;;;5111833;28;20171;-44
2022/08/11 06:10:32;;;;;;;3.00;2.70;;;21.40;99.90;;;;;;5093835;28;20282;-43
2022/08/11 06:12:59;;;;;;;2.90;2.50;;;21.40;99.90;;;;;;5112002;28;20231;-44
2022/08/11 06:15:26;;;;;;;5.03;2.70;;;21.30;99.90;;;;;;5111771;28;20675;-44
2022/08/11 06:17:52;;;;;;;4.13;2.65;;;21.50;99.90;;;;;;5112158;28;20173;-44
2022/08/11 06:20:20;;;;;;;3.58;2.90;;;21.50;99.90;;;;;;5112041;28;20214;-44
2022/08/11 06:22:53;;;;;;;4.68;3.00;;;21.60;99.90;;;;;;5112232;28;20165;-44
2022/08/11 06:25:22;;;;;;;6.68;3.10;;;21.80;99.90;;;;;;5112208;28;20541;-43
2022/08/11 06:27:57;;;;;;;3.70;2.80;;;21.90;99.90;;;;;;5112068;28;20169;-45
2022/08/11 06:30:33;;;;;;;3.92;3.03;;;21.90;99.90;;;;;;5111649;28;20328;-43
2022/08/11 06:33:00;;;;;;;7.38;2.83;;;22.00;99.90;;;;;;5111708;28;20179;-43
2022/08/11 06:35:59;;;;;;;3.40;3.10;;;22.20;99.90;;;;;;5111672;28;20211;-44
2022/08/11 06:38:55;;;;;;;3.97;3.20;;;22.30;99.90;;;;;;5114356;28;20173;-43
2022/08/11 06:41:32;;;;;;;3.33;3.03;;;22.20;99.90;;;;;;5115367;28;20165;-45
2022/08/11 06:44:12;;;;;;;4.22;2.45;;;22.30;99.90;;;;;;5115390;28;20243;-44
2022/08/11 06:46:39;;;;;;;3.38;2.85;;;22.40;99.90;;;;;;5115757;28;20160;-43
2022/08/11 06:51:10;;;;;;;6.20;2.90;;;22.50;99.90;;;;;;5115334;28;20208;-45
2022/08/11 06:52:03;;;;;;;4.00;2.42;;;22.60;99.90;;;;;;5115040;28;20169;-44
2022/08/11 06:54:32;;;;;;;5.78;3.20;;;22.70;99.90;;;;;;5114983;28;20616;-45
2022/08/11 07:02:51;;;;;;;3.22;2.78;;;23.00;99.90;;;;;;5115038;28;20176;-44
2022/08/11 07:05:28;;;;;;;2.70;2.47;;;23.10;99.90;;;;;;5114966;28;20160;-43
2022/08/11 07:17:21;;;;;;;3.67;2.35;;;23.40;99.90;;;;;;5072193;28;20189;-44
2022/08/11 07:31:13;;;;;;;4.85;2.22;;;24.20;99.90;;;;;;5114953;28;20193;-43
2022/08/11 07:33:46;;;;;;;3.17;2.60;;;24.30;99.90;;;;;;5114703;28;20269;-42
2022/08/11 07:36:14;;;;;;;6.40;2.55;;;24.40;99.90;;;;;;5114456;28;20196;-45
2022/08/11 07:38:50;;;;;;;3.50;2.58;;;24.50;99.90;;;;;;5114720;28;20171;-44
2022/08/11 07:41:18;;;;;;;4.50;2.60;;;24.50;99.90;;;;;;5096735;28;20251;-44
2022/08/11 07:43:48;;;;;;;7.43;2.55;;;24.70;99.90;;;;;;5114138;28;20176;-48
2022/08/11 07:54:32;;;;;;;4.68;2.80;;;25.10;99.90;;;;;;5114363;28;20638;-53
2022/08/11 07:56:59;;;;;;;6.28;3.28;;;25.20;99.90;;;;;;5114090;28;20176;-47
2022/08/11 08:18:44;;;;;;;3.72;2.40;;;26.10;99.60;;;;;;5113942;28;20179;-43
2022/08/11 08:21:14;;;;;;;2.67;2.47;;;26.30;99.90;;;;;;5113785;28;20161;-43
2022/08/11 08:23:46;;;;;;;5.70;2.85;;;26.40;99.70;;;;;;5112188;28;20650;-47
2022/08/11 08:31:48;;;;;;;8.05;2.60;;;26.70;97.40;;;;;;5113659;28;20190;-52
2022/08/11 08:34:14;;;;;;;9.25;2.70;;;26.70;97.40;;;;;;5113126;28;20252;-52
2022/08/11 08:36:49;;;;;;;3.75;2.22;;;26.70;97.30;;;;;;5113302;28;20168;-51
2022/08/11 08:39:19;;;;;;;5.68;2.40;;;26.80;98.10;;;;;;5113114;28;20237;-46
2022/08/11 08:41:48;;;;;;;4.78;2.58;;;26.80;96.20;;;;;;5113364;28;20172;-51
2022/08/11 08:44:17;;;;;;;3.55;2.40;;;27.00;97.10;;;;;;5113277;28;20172;-53
2022/08/11 08:46:46;;;;;;;6.40;2.47;;;27.10;95.80;;;;;;5112919;28;20612;-49
2022/08/11 08:49:18;;;;;;;5.05;2.47;;;27.30;96.00;;;;;;5112951;28;20231;-51
2022/08/11 08:51:47;;;;;;;6.50;2.63;;;27.30;96.20;;;;;;5112816;28;20254;-46
2022/08/11 08:54:20;;;;;;;5.55;2.53;;;27.50;95.60;;;;;;5112823;28;20161;-53
2022/08/11 08:56:51;;;;;;;3.85;2.58;;;27.70;96.00;;;;;;5112771;28;20187;-50
2022/08/11 08:59:20;;;;;;;5.25;2.45;;;27.70;94.10;;;;;;5112687;28;20152;-49
2022/08/11 09:01:51;;;;;;;4.35;2.40;;;27.80;94.30;;;;;;5112693;28;20164;-51
2022/08/11 09:04:19;;;;;;;3.28;2.45;;;27.90;94.30;;;;;;5113010;28;20210;-52
2022/08/11 09:06:45;;;;;;;3.03;2.70;;;28.10;93.70;;;;;;5113040;28;20212;-49
2022/08/11 09:09:11;;;;;;;9.85;2.50;;;28.00;93.40;;;;;;5094350;28;20294;-53
2022/08/11 09:11:52;;;;;;;3.85;2.63;;;28.10;93.70;;;;;;5113254;28;20160;-51
2022/08/11 09:17:22;;;;;;;3.55;2.40;;;28.10;92.70;;;;;;5112721;28;20175;-49
2022/08/11 09:19:59;;;;;;;3.78;2.53;;;28.20;91.60;;;;;;5112699;28;20168;-53
2022/08/11 09:28:01;;;;;;;3.45;2.60;;;28.40;91.60;;;;;;5112734;28;20172;-51
2022/08/11 09:30:27;;;;;;;4.65;2.47;;;28.60;91.30;;;;;;5112417;28;20203;-46
2022/08/11 09:32:59;;;;;;;7.85;2.60;;;28.60;90.10;;;;;;5112235;28;20159;-50
2022/08/11 09:35:29;;;;;;;10.75;2.75;;;28.60;89.10;;;;;;5112199;28;20168;-43
2022/08/11 09:40:43;;;;;;;5.95;2.28;;;29.00;87.30;;;;;;5112566;28;20206;-47
2022/08/11 09:45:57;;;;;;;3.90;2.28;;;29.10;86.10;;;;;;5112500;28;20551;-49
2022/08/11 09:48:25;;;;;;;4.07;2.30;;;29.20;85.50;;;;;;5112132;28;20156;-45
2022/08/11 09:50:58;;;;;;;4.45;2.30;;;29.40;85.70;;;;;;5112183;28;20627;-46
2022/08/11 09:53:26;;;;;;;5.65;2.70;;;29.50;85.80;;;;;;5112167;28;20225;-44
2022/08/11 09:55:52;;;;;;;3.15;2.55;;;29.60;83.60;;;;;;5111916;28;20179;-47
2022/08/11 09:58:18;;;;;;;2.38;2.10;;;29.40;80.50;;;;;;5112131;28;20163;-44
2022/08/11 10:00:47;;;;;;;7.90;2.22;;;29.40;78.70;;;;;;5112055;28;20646;-44
2022/08/11 10:03:17;;;;;;;3.85;2.38;;;29.40;76.60;;;;;;5112014;28;20171;-48
2022/08/11 10:08:34;;;;;;;2.13;1.92;;;29.50;77.00;;;;;;5112264;28;20179;-45
2022/08/11 10:11:00;;;;;;;3.17;2.20;;;29.50;74.30;;;;;;5112000;28;20164;-53
2022/08/11 10:13:32;;;;;;;3.28;2.00;;;29.70;75.60;;;;;;5114996;28;20351;-47
2022/08/11 10:16:01;;;;;;;2.50;2.25;;;29.80;72.60;;;;;;5116318;28;20263;-52
2022/08/11 10:18:47;;;;;;;2.50;2.17;;;29.90;71.10;;;;;;5116004;28;20160;-49
2022/08/11 10:21:23;;;;;;;3.97;2.28;;;30.10;73.00;;;;;;5116140;28;20224;-48
2022/08/11 10:35:46;;;;;;;3.15;2.47;;;30.20;71.60;;;;;;5115908;28;20179;-50
2022/08/11 10:38:14;;;;;;;13.68;2.50;;;30.50;71.10;;;;;;5115534;28;20164;-46
2022/08/11 10:40:45;;;;;;;2.70;2.50;;;30.50;67.00;;;;;;5115481;28;20243;-48
2022/08/11 10:43:12;;;;;;;8.15;2.30;;;30.60;68.10;;;;;;5115505;28;20321;-48
2022/08/11 10:48:36;;;;;;;3.38;2.78;;;30.60;66.40;;;;;;5115594;28;20195;-47
2022/08/11 10:51:12;;;;;;;4.15;2.17;;;30.60;65.90;;;;;;5115258;28;20164;-48
2022/08/11 10:59:21;;;;;;;3.17;2.30;;;30.80;67.50;;;;;;5115555;28;20221;-48
2022/08/11 11:01:47;;;;;;;2.58;2.20;;;30.90;65.70;;;;;;5115140;28;20267;-54
2022/08/11 11:04:59;;;;;;;3.72;2.30;;;30.90;66.00;;;;;;5115123;28;20171;-46
2022/08/11 11:08:51;;;;;;;3.28;2.72;;;30.70;67.20;;;;;;5032249;28;20669;-44
2022/08/11 11:10:51;;;;;;;3.90;2.40;;;30.80;67.20;;;;;;5114744;28;20505;-44
2022/08/11 11:18:48;;;;;;;4.70;2.47;;;30.80;66.70;;;;;;5099707;28;20199;-46
2022/08/11 11:21:19;;;;;;;3.58;2.40;;;31.00;66.80;;;;;;5115069;28;20529;-46
2022/08/11 11:24:12;;;;;;;3.60;2.70;;;31.10;66.70;;;;;;5113715;28;20191;-44
2022/08/11 11:26:44;;;;;;;2.80;2.50;;;31.10;65.80;;;;;;5115025;28;20598;-44
2022/08/11 11:29:23;;;;;;;3.72;2.30;;;31.10;66.70;;;;;;5114450;28;20212;-47
2022/08/11 11:32:16;;;;;;;4.95;2.40;;;31.30;66.60;;;;;;5114724;28;20160;-44
2022/08/11 11:34:54;;;;;;;5.10;2.78;;;31.30;67.30;;;;;;5114694;28;20176;-53
2022/08/11 11:37:22;;;;;;;3.42;2.50;;;31.30;65.60;;;;;;5114413;28;20655;-53
2022/08/11 11:39:48;;;;;;;5.85;2.67;;;31.40;66.10;;;;;;5114574;28;20254;-50
2022/08/11 11:42:17;;;;;;;6.97;2.47;;;31.50;65.40;;;;;;5114392;28;20243;-54
2022/08/11 11:44:44;;;;;;;4.88;2.47;;;31.60;66.40;;;;;;5114446;28;20172;-50
2022/08/11 11:47:11;;;;;;;3.55;2.20;;;31.70;64.80;;;;;;5114249;28;20191;-53
2022/08/11 11:49:39;;;;;;;6.45;2.38;;;31.80;64.90;;;;;;5114418;28;20199;-52
2022/08/11 11:52:08;;;;;;;2.33;2.10;;;32.10;66.90;;;;;;5114495;28;20163;-54
2022/08/11 11:54:35;;;;;;;3.33;2.33;;;31.80;62.30;;;;;;5114398;28;20731;-51
2022/08/11 12:02:35;;;;;;;2.60;2.40;;;31.90;62.60;;;;;;5114625;28;20217;-54
2022/08/11 12:05:01;;;;;;;4.25;2.55;;;31.80;62.20;;;;;;5113970;28;20157;-50
2022/08/11 12:10:16;;;;;;;4.38;2.50;;;31.80;63.00;;;;;;5113770;28;20209;-47
2022/08/11 12:15:28;;;;;;;3.95;2.53;;;32.10;61.20;;;;;;5113846;28;20170;-44
2022/08/11 12:17:55;;;;;;;2.80;2.45;;;31.90;61.50;;;;;;5113858;28;20156;-45
2022/08/11 12:20:21;;;;;;;3.50;2.67;;;31.90;61.10;;;;;;5096098;28;20221;-50
2022/08/11 12:28:21;;;;;;;2.80;2.22;;;32.00;59.90;;;;;;5113831;28;20232;-47
2022/08/11 12:30:46;;;;;;;2.60;2.38;;;32.10;59.50;;;;;;5113327;28;20203;-49
2022/08/11 12:33:13;;;;;;;4.18;2.60;;;32.10;59.90;;;;;;5113317;28;20156;-51
2022/08/11 12:35:40;;;;;;;4.03;2.30;;;32.00;59.50;;;;;;5113168;28;20171;-50
2022/08/11 12:38:07;;;;;;;2.47;2.25;;;32.10;61.20;;;;;;5113590;28;20247;-46
2022/08/11 12:46:11;;;;;;;5.20;2.40;;;32.50;58.90;;;;;;5113805;28;20256;-53
2022/08/11 12:51:58;;;;;;;4.50;2.30;;;32.40;59.00;;;;;;5113436;28;20182;-49
2022/08/11 12:54:55;;;;;;;4.97;2.47;;;32.10;58.50;;;;;;5113000;28;20665;-50
2022/08/11 13:05:56;;;;;;;7.85;2.65;;;32.50;59.20;;;;;;5113140;28;20198;-47
2022/08/11 13:08:24;;;;;;;3.20;2.10;;;32.40;59.60;;;;;;5112827;28;20651;-54
2022/08/11 13:13:38;;;;;;;6.70;2.58;;;32.50;59.00;;;;;;5112970;28;20233;-50
2022/08/11 13:16:05;;;;;;;4.68;2.50;;;32.70;58.20;;;;;;5113118;28;20187;-44
2022/08/11 13:18:32;;;;;;;2.40;2.20;;;32.80;59.70;;;;;;5112637;28;20589;-44
2022/08/11 13:20:59;;;;;;;3.38;2.78;;;32.90;58.10;;;;;;5112584;28;20203;-45
2022/08/11 13:23:26;;;;;;;2.55;2.35;;;33.00;58.10;;;;;;5112551;28;20209;-44
2022/08/11 13:25:53;;;;;;;3.05;2.60;;;32.90;57.60;;;;;;5112464;28;20164;-44
2022/08/11 13:28:21;;;;;;;2.60;2.40;;;33.00;57.60;;;;;;5112528;28;20160;-45
2022/08/11 13:33:40;;;;;;;2.45;2.25;;;32.90;58.10;;;;;;5113011;28;20251;-44
2022/08/11 13:36:06;;;;;;;2.83;2.20;;;32.90;57.40;;;;;;5112651;28;20164;-51
2022/08/11 13:38:33;;;;;;;4.82;2.10;;;32.90;57.50;;;;;;5112386;28;20160;-51
2022/08/11 13:41:00;;;;;;;6.47;2.50;;;33.00;56.90;;;;;;5112562;28;20533;-50
2022/08/11 13:43:27;;;;;;;5.88;2.20;;;33.00;57.90;;;;;;5112274;28;20163;-44
2022/08/11 13:46:17;;;;;;;5.20;2.30;;;33.00;56.80;;;;;;5111554;28;20167;-53
2022/08/11 13:48:41;;;;;;;3.47;2.38;;;32.90;56.40;;;;;;5111308;28;20199;-53
2022/08/11 13:53:52;;;;;;;3.33;2.05;;;32.80;56.00;;;;;;5112063;28;20638;-48
2022/08/11 13:56:21;;;;;;;3.67;2.30;;;33.00;56.00;;;;;;5093745;28;20168;-51
2022/08/11 13:58:48;;;;;;;4.82;2.45;;;33.00;56.80;;;;;;5111895;28;20213;-50
2022/08/11 14:01:14;;;;;;;2.55;2.35;;;33.20;56.20;;;;;;5111678;28;20179;-44
2022/08/11 14:03:42;;;;;;;3.95;2.40;;;33.20;56.50;;;;;;5111417;28;20160;-44
2022/08/11 14:06:08;;;;;;;2.92;2.63;;;33.10;56.50;;;;;;5112146;28;20176;-46
2022/08/11 14:08:37;;;;;;;3.17;2.45;;;33.10;56.00;;;;;;5112340;28;20179;-54
2022/08/11 14:13:52;;;;;;;3.97;2.45;;;33.10;56.10;;;;;;5111665;28;20222;-44
2022/08/11 14:16:42;;;;;;;2.22;1.90;;;33.10;56.40;;;;;;5111438;28;20160;-44
2022/08/11 14:19:12;;;;;;;3.90;2.72;;;33.10;55.70;;;;;;5111544;28;20191;-44
2022/08/11 14:24:27;;;;;;;3.55;2.28;;;33.00;55.80;;;;;;5112013;28;20214;-44
2022/08/11 14:26:53;;;;;;;4.50;2.35;;;33.10;56.00;;;;;;5111856;28;20243;-47
2022/08/11 14:29:21;;;;;;;2.70;2.50;;;33.10;56.30;;;;;;5111341;28;20200;-54
2022/08/11 14:31:52;;;;;;;7.88;2.60;;;33.20;56.20;;;;;;5111684;28;20612;-54
2022/08/11 14:34:20;;;;;;;4.50;2.47;;;33.20;56.40;;;;;;5111860;28;20571;-54
2022/08/11 14:36:51;;;;;;;3.70;2.22;;;33.10;55.40;;;;;;5111559;28;20160;-51
2022/08/11 14:39:20;;;;;;;5.13;2.70;;;33.20;55.70;;;;;;5111440;28;20168;-51
2022/08/11 14:47:21;;;;;;;5.15;2.67;;;33.30;56.40;;;;;;5111798;28;20171;-48
2022/08/11 14:49:47;;;;;;;2.90;2.40;;;33.30;55.80;;;;;;5111246;28;20192;-50
2022/08/11 14:52:16;;;;;;;2.95;2.63;;;33.40;56.00;;;;;;5111027;28;20168;-51
2022/08/11 14:57:38;;;;;;;4.75;2.80;;;33.30;56.00;;;;;;5112034;28;20582;-50
2022/08/11 15:00:06;;;;;;;3.58;2.67;;;33.20;56.30;;;;;;5115089;28;20251;-52
2022/08/11 15:05:21;;;;;;;5.20;2.60;;;33.30;56.00;;;;;;5115008;28;20225;-50
2022/08/11 15:07:47;;;;;;;2.65;2.45;;;33.30;55.90;;;;;;5114592;28;20172;-47
2022/08/11 15:10:15;;;;;;;3.92;2.60;;;33.40;56.80;;;;;;5114533;28;20287;-48
2022/08/11 15:12:41;;;;;;;4.95;2.85;;;33.30;56.10;;;;;;5114493;28;20721;-47
2022/08/11 15:17:55;;;;;;;4.28;2.65;;;33.30;56.80;;;;;;5114979;28;20172;-49
2022/08/11 15:25:58;;;;;;;4.40;2.58;;;33.20;56.10;;;;;;5114879;28;20198;-48
2022/08/11 15:48:12;;;;;;;4.85;4.15;;;32.90;56.10;;;;;;5114390;28;20179;-44
2022/08/11 15:50:40;;;;;;;4.35;3.95;;;33.00;55.50;;;;;;5113918;28;20294;-50
2022/08/11 15:53:16;;;;;;;4.88;2.70;;;33.00;55.30;;;;;;5096407;28;20171;-53
2022/08/11 15:55:43;;;;;;;5.13;2.88;;;32.90;56.10;;;;;;5113949;28;20172;-47
2022/08/11 16:06:39;;;;;;;7.25;4.88;;;32.80;55.20;;;;;;5114333;28;20202;-46
2022/08/11 16:09:06;;;;;;;8.95;7.78;;;32.90;55.70;;;;;;5113847;28;20188;-45
2022/08/11 16:11:33;;;;;;;5.70;3.58;;;33.00;55.70;;;;;;5113043;28;20156;-48
2022/08/11 16:16:51;;;;;;;3.70;2.42;;;32.80;56.70;;;;;;5113859;28;20650;-44
2022/08/11 16:19:18;;;;;;;4.28;2.85;;;32.70;56.30;;;;;;5113618;28;20524;-47
2022/08/11 16:21:49;;;;;;;7.03;6.18;;;32.60;56.00;;;;;;5113686;28;20630;-44
2022/08/11 16:24:18;;;;;;;4.13;3.58;;;32.70;56.10;;;;;;5113547;28;20172;-45
2022/08/11 16:26:45;;;;;;;3.03;2.47;;;32.70;55.50;;;;;;5113076;28;20164;-46
2022/08/11 16:29:11;;;;;;;6.35;4.00;;;32.70;56.10;;;;;;5113171;28;20274;-46
2022/08/11 16:31:39;;;;;;;8.30;4.60;;;32.70;55.90;;;;;;5113332;28;20603;-44
2022/08/11 16:38:33;;;;;;;4.75;3.83;;;32.70;56.00;;;;;;5113482;28;20171;-46
2022/08/11 16:39:40;;;;;;;4.10;2.75;;;32.50;55.20;;;;;;5113046;28;20220;-45
2022/08/11 16:47:40;;;;;;;3.90;3.22;;;32.60;56.60;;;;;;5113365;28;20167;-46
2022/08/11 16:50:08;;;;;;;14.18;8.07;;;32.40;55.60;;;;;;5113272;28;20273;-45
2022/08/11 16:52:33;;;;;;;4.53;3.25;;;32.40;56.50;;;;;;5113560;28;20170;-44
2022/08/11 16:55:04;;;;;;;6.63;4.78;;;32.40;56.60;;;;;;5112997;28;20164;-44
2022/08/11 17:00:17;;;;;;;3.47;2.60;;;32.50;56.30;;;;;;5113240;28;20170;-49
2022/08/11 17:14:44;;;;;;;3.95;3.25;;;32.00;59.10;;;;;;5112648;28;20229;-47
2022/08/11 17:17:19;;;;;;;5.47;3.13;;;31.90;58.30;;;;;;5112125;28;20167;-50
2022/08/11 17:19:51;;;;;;;6.60;2.88;;;32.00;58.90;;;;;;5112715;28;20164;-52
2022/08/11 17:25:07;;;;;;;5.22;2.67;;;32.00;58.60;;;;;;5112788;28;20171;-48
2022/08/11 17:27:37;;;;;;;3.13;2.50;;;31.90;59.00;;;;;;5112598;28;20172;-47
2022/08/11 17:30:07;;;;;;;4.32;2.70;;;31.80;58.40;;;;;;5112179;28;20222;-48
2022/08/11 17:35:33;;;;;;;6.35;2.90;;;31.90;58.70;;;;;;5112722;28;20214;-50
2022/08/11 17:38:20;;;;;;;2.58;2.30;;;31.80;58.40;;;;;;5112336;28;20589;-48
2022/08/11 17:49:10;;;;;;;3.78;2.80;;;31.80;59.30;;;;;;5102164;28;20198;-43
2022/08/11 17:59:56;;;;;;;3.80;2.50;;;31.40;58.70;;;;;;5091888;28;20175;-45
2022/08/11 18:05:32;;;;;;;8.40;3.03;;;31.20;58.70;;;;;;5075872;28;20640;-49
